This is the latest recevied weather packets stored in our database for station/object ZL2ARL. If no packets are shown the sender has not sent any weather packets the latest 10 day(s).
| Time | Temp. | Humidity | Pressure | Rain* | Wind** | Luminosity | Snow |
|---|---|---|---|---|---|---|---|
| 1777528820 | 9.44° C | 75% | 1038.9 hPa | 0 mm | - | 0 W/m² | - |
| 1777528236 | 9.44° C | 75% | 1038.9 hPa | 0 mm | - | 0 W/m² | - |
| 1777526421 | 10.56° C | 71% | 1038.8 hPa | 0 mm | - | 12 W/m² | - |
| 1777524627 | 11.11° C | 67% | 1038.8 hPa | 0 mm | - | 39 W/m² | - |
| 1777524021 | 11.67° C | 66% | 1038.7 hPa | 0 mm | - | 57 W/m² | - |
| 1777521621 | 13.33° C | 59% | 1038.5 hPa | 0 mm | - | 129 W/m² | - |
| 1777516217 | 15° C | 56% | 1038.3 hPa | 0 mm | - | 328 W/m² | - |
| 1777512629 | 14.44° C | 58% | 1038.6 hPa | 0 mm | - | 435 W/m² | - |
| 1777509019 | 13.33° C | 66% | 1038.7 hPa | 0 mm | - | 484 W/m² | - |
| 1777506619 | 12.78° C | 66% | 1038.7 hPa | 0 mm | - | 475 W/m² | - |
| 1777502424 | 12.22° C | 68% | 1038.4 hPa | 0 mm | - | 389 W/m² | - |
| 1777501234 | 11.67° C | 70% | 1038.2 hPa | 0 mm | - | 316 W/m² | - |
| 1777498230 | 11.67° C | 72% | 1037.8 hPa | 0 mm | - | 254 W/m² | - |
| 1777495850 | 11.11° C | 73% | 1037.2 hPa | 0 mm | - | 192 W/m² | - |
| 1777495225 | 11.11° C | 74% | 1037.1 hPa | 0 mm | - | 159 W/m² | - |
| 1777489237 | 10.56° C | 73% | 1035.3 hPa | 0 mm | - | 1 W/m² | - |
| 1777485628 | 10.56° C | 81% | 1034.5 hPa | 0 mm | - | 0 W/m² | - |
| 1777481434 | 10.56° C | 79% | 1033.5 hPa | 0 mm | - | 0 W/m² | - |
| 1777480849 | 10.56° C | 78% | 1033.3 hPa | 0 mm | - | 0 W/m² | - |
| 1777478429 | 10.56° C | 76% | 1032.5 hPa | 0 mm | - | 0 W/m² | - |
| 1777473025 | 11.11° C | 84% | 1031.1 hPa | 0 mm | - | 0 W/m² | - |
| 1777467016 | 11.11° C | 89% | 1027.9 hPa | 0 mm | - | 0 W/m² | - |
| 1777460423 | 12.78° C | 83% | 1025.3 hPa | 0 mm | - | 0 W/m² | - |
| 1777449030 | 13.89° C | 79% | 1023.1 hPa | 0 mm | - | 0 W/m² | - |
| 1777448445 | 13.89° C | 80% | 1023 hPa | 0 mm | - | 0 W/m² | - |
* Rain latest hour (hover to see other rain measurements)
** Current wind speed in m/s (hover to see current wind gust speed)